sensor_id;sensor_type;location;lat;lon;timestamp;P1;durP1;ratioP1;P2;durP2;ratioP2
65667;SDS011;52369;52.542;13.232;2023-02-13T00:00:02;16.33;;;6.72;;
65667;SDS011;52369;52.542;13.232;2023-02-13T00:02:29;17.42;;;6.15;;
65667;SDS011;52369;52.542;13.232;2023-02-13T00:04:55;17.92;;;7.13;;
65667;SDS011;52369;52.542;13.232;2023-02-13T00:07:21;14.80;;;5.88;;
65667;SDS011;52369;52.542;13.232;2023-02-13T00:09:47;22.73;;;8.32;;
65667;SDS011;52369;52.542;13.232;2023-02-13T00:12:13;16.98;;;6.35;;
65667;SDS011;52369;52.542;13.232;2023-02-13T00:14:39;14.88;;;5.43;;
65667;SDS011;52369;52.542;13.232;2023-02-13T00:17:06;13.73;;;4.75;;
65667;SDS011;52369;52.542;13.232;2023-02-13T00:19:32;17.10;;;4.88;;
65667;SDS011;52369;52.542;13.232;2023-02-13T00:21:58;13.60;;;5.43;;
65667;SDS011;52369;52.542;13.232;2023-02-13T00:24:24;10.68;;;4.45;;
65667;SDS011;52369;52.542;13.232;2023-02-13T00:26:50;11.02;;;4.22;;
65667;SDS011;52369;52.542;13.232;2023-02-13T00:29:16;10.82;;;4.30;;
65667;SDS011;52369;52.542;13.232;2023-02-13T00:31:42;8.95;;;3.80;;
65667;SDS011;52369;52.542;13.232;2023-02-13T00:34:08;7.78;;;3.20;;
65667;SDS011;52369;52.542;13.232;2023-02-13T00:36:34;6.90;;;3.17;;
65667;SDS011;52369;52.542;13.232;2023-02-13T00:39:00;8.25;;;3.55;;
65667;SDS011;52369;52.542;13.232;2023-02-13T00:41:26;9.88;;;3.88;;
65667;SDS011;52369;52.542;13.232;2023-02-13T00:43:52;9.88;;;3.80;;
65667;SDS011;52369;52.542;13.232;2023-02-13T00:46:18;8.18;;;3.33;;
65667;SDS011;52369;52.542;13.232;2023-02-13T00:48:45;6.93;;;2.80;;
65667;SDS011;52369;52.542;13.232;2023-02-13T00:51:11;8.35;;;3.03;;
65667;SDS011;52369;52.542;13.232;2023-02-13T00:53:37;8.15;;;3.25;;
65667;SDS011;52369;52.542;13.232;2023-02-13T00:56:04;4.57;;;2.15;;
65667;SDS011;52369;52.542;13.232;2023-02-13T00:58:30;4.70;;;2.33;;
65667;SDS011;52369;52.542;13.232;2023-02-13T01:00:56;8.25;;;3.55;;
65667;SDS011;52369;52.542;13.232;2023-02-13T01:03:22;6.03;;;2.53;;
65667;SDS011;52369;52.542;13.232;2023-02-13T01:05:48;7.30;;;2.85;;
65667;SDS011;52369;52.542;13.232;2023-02-13T01:08:15;6.63;;;2.10;;
65667;SDS011;52369;52.542;13.232;2023-02-13T01:10:42;5.55;;;2.20;;
65667;SDS011;52369;52.542;13.232;2023-02-13T01:13:08;6.30;;;2.47;;
65667;SDS011;52369;52.542;13.232;2023-02-13T01:15:34;7.25;;;2.55;;
65667;SDS011;52369;52.542;13.232;2023-02-13T01:18:01;10.25;;;2.95;;
65667;SDS011;52369;52.542;13.232;2023-02-13T01:20:27;8.73;;;3.13;;
65667;SDS011;52369;52.542;13.232;2023-02-13T01:22:54;5.45;;;2.30;;
65667;SDS011;52369;52.542;13.232;2023-02-13T01:25:21;5.10;;;2.00;;
65667;SDS011;52369;52.542;13.232;2023-02-13T01:27:47;4.82;;;2.55;;
65667;SDS011;52369;52.542;13.232;2023-02-13T01:30:17;5.63;;;2.60;;
65667;SDS011;52369;52.542;13.232;2023-02-13T01:32:43;4.68;;;2.13;;
65667;SDS011;52369;52.542;13.232;2023-02-13T01:35:10;6.07;;;2.22;;
65667;SDS011;52369;52.542;13.232;2023-02-13T01:37:37;6.15;;;1.80;;
65667;SDS011;52369;52.542;13.232;2023-02-13T01:40:04;4.40;;;2.15;;
65667;SDS011;52369;52.542;13.232;2023-02-13T01:42:32;6.70;;;2.95;;
65667;SDS011;52369;52.542;13.232;2023-02-13T01:44:59;6.53;;;2.50;;
65667;SDS011;52369;52.542;13.232;2023-02-13T01:47:39;5.90;;;2.70;;
65667;SDS011;52369;52.542;13.232;2023-02-13T01:50:18;5.90;;;2.65;;
65667;SDS011;52369;52.542;13.232;2023-02-13T01:52:48;6.13;;;2.45;;
65667;SDS011;52369;52.542;13.232;2023-02-13T01:55:16;7.40;;;2.70;;
65667;SDS011;52369;52.542;13.232;2023-02-13T01:57:44;6.13;;;2.58;;
65667;SDS011;52369;52.542;13.232;2023-02-13T02:00:13;7.82;;;3.05;;
65667;SDS011;52369;52.542;13.232;2023-02-13T02:02:41;8.65;;;3.08;;
65667;SDS011;52369;52.542;13.232;2023-02-13T02:05:08;7.50;;;3.47;;
65667;SDS011;52369;52.542;13.232;2023-02-13T02:07:34;7.50;;;3.45;;
65667;SDS011;52369;52.542;13.232;2023-02-13T02:10:02;8.70;;;3.78;;
65667;SDS011;52369;52.542;13.232;2023-02-13T02:15:02;4.75;;;2.75;;
65667;SDS011;52369;52.542;13.232;2023-02-13T02:17:29;8.32;;;3.22;;
65667;SDS011;52369;52.542;13.232;2023-02-13T02:32:41;9.45;;;3.90;;
65667;SDS011;52369;52.542;13.232;2023-02-13T02:37:58;9.00;;;3.85;;
65667;SDS011;52369;52.542;13.232;2023-02-13T02:48:11;12.32;;;4.75;;
65667;SDS011;52369;52.542;13.232;2023-02-13T02:51:10;11.05;;;4.80;;
65667;SDS011;52369;52.542;13.232;2023-02-13T02:56:47;12.10;;;5.30;;
65667;SDS011;52369;52.542;13.232;2023-02-13T02:59:15;12.93;;;5.03;;
65667;SDS011;52369;52.542;13.232;2023-02-13T03:02:01;12.02;;;5.30;;
65667;SDS011;52369;52.542;13.232;2023-02-13T03:04:53;12.70;;;5.38;;
65667;SDS011;52369;52.542;13.232;2023-02-13T03:07:39;13.60;;;5.18;;
65667;SDS011;52369;52.542;13.232;2023-02-13T03:10:07;13.23;;;4.80;;
65667;SDS011;52369;52.542;13.232;2023-02-13T03:15:40;12.35;;;5.55;;
65667;SDS011;52369;52.542;13.232;2023-02-13T03:18:25;14.40;;;7.15;;
65667;SDS011;52369;52.542;13.232;2023-02-13T03:21:13;12.88;;;6.47;;
65667;SDS011;52369;52.542;13.232;2023-02-13T03:24:02;13.35;;;6.43;;
65667;SDS011;52369;52.542;13.232;2023-02-13T03:26:46;13.85;;;6.15;;
65667;SDS011;52369;52.542;13.232;2023-02-13T03:32:08;16.90;;;7.20;;
65667;SDS011;52369;52.542;13.232;2023-02-13T03:34:36;16.17;;;7.47;;
65667;SDS011;52369;52.542;13.232;2023-02-13T03:37:26;13.38;;;5.95;;
65667;SDS011;52369;52.542;13.232;2023-02-13T03:40:12;13.70;;;6.15;;
65667;SDS011;52369;52.542;13.232;2023-02-13T03:45:08;14.57;;;6.38;;
65667;SDS011;52369;52.542;13.232;2023-02-13T03:47:54;15.00;;;6.28;;
65667;SDS011;52369;52.542;13.232;2023-02-13T03:50:21;16.83;;;6.82;;
65667;SDS011;52369;52.542;13.232;2023-02-13T03:57:59;17.25;;;7.45;;
65667;SDS011;52369;52.542;13.232;2023-02-13T04:00:47;16.05;;;7.00;;
65667;SDS011;52369;52.542;13.232;2023-02-13T04:03:25;16.65;;;6.80;;
65667;SDS011;52369;52.542;13.232;2023-02-13T04:05:57;17.65;;;7.45;;
65667;SDS011;52369;52.542;13.232;2023-02-13T04:08:27;16.48;;;7.22;;
65667;SDS011;52369;52.542;13.232;2023-02-13T04:10:56;18.15;;;7.22;;
65667;SDS011;52369;52.542;13.232;2023-02-13T04:13:29;15.18;;;6.80;;
65667;SDS011;52369;52.542;13.232;2023-02-13T04:18:42;17.70;;;6.60;;
65667;SDS011;52369;52.542;13.232;2023-02-13T04:21:09;17.80;;;7.55;;
65667;SDS011;52369;52.542;13.232;2023-02-13T04:23:35;17.83;;;7.18;;
65667;SDS011;52369;52.542;13.232;2023-02-13T04:26:02;14.95;;;7.15;;
65667;SDS011;52369;52.542;13.232;2023-02-13T04:28:30;17.23;;;7.60;;
65667;SDS011;52369;52.542;13.232;2023-02-13T04:30:56;16.25;;;6.85;;
65667;SDS011;52369;52.542;13.232;2023-02-13T04:33:22;16.85;;;7.32;;
65667;SDS011;52369;52.542;13.232;2023-02-13T04:35:48;16.35;;;6.38;;
65667;SDS011;52369;52.542;13.232;2023-02-13T04:38:14;13.82;;;6.55;;
65667;SDS011;52369;52.542;13.232;2023-02-13T04:40:40;14.45;;;6.57;;
65667;SDS011;52369;52.542;13.232;2023-02-13T04:43:06;14.25;;;6.10;;
65667;SDS011;52369;52.542;13.232;2023-02-13T04:45:32;13.18;;;5.93;;
65667;SDS011;52369;52.542;13.232;2023-02-13T04:47:58;13.25;;;6.00;;
65667;SDS011;52369;52.542;13.232;2023-02-13T04:50:24;14.20;;;6.25;;
65667;SDS011;52369;52.542;13.232;2023-02-13T04:52:54;14.82;;;6.30;;
65667;SDS011;52369;52.542;13.232;2023-02-13T04:55:21;13.90;;;6.10;;
65667;SDS011;52369;52.542;13.232;2023-02-13T04:57:47;17.15;;;6.53;;
65667;SDS011;52369;52.542;13.232;2023-02-13T05:00:13;12.25;;;5.65;;
65667;SDS011;52369;52.542;13.232;2023-02-13T05:02:39;12.45;;;5.65;;
65667;SDS011;52369;52.542;13.232;2023-02-13T05:05:05;12.02;;;5.50;;
65667;SDS011;52369;52.542;13.232;2023-02-13T05:07:31;16.77;;;6.03;;
65667;SDS011;52369;52.542;13.232;2023-02-13T05:09:57;12.23;;;5.85;;
65667;SDS011;52369;52.542;13.232;2023-02-13T05:12:23;15.23;;;5.70;;
65667;SDS011;52369;52.542;13.232;2023-02-13T05:14:49;12.57;;;5.90;;
65667;SDS011;52369;52.542;13.232;2023-02-13T05:17:15;12.95;;;5.80;;
65667;SDS011;52369;52.542;13.232;2023-02-13T05:19:41;12.15;;;6.13;;
65667;SDS011;52369;52.542;13.232;2023-02-13T05:22:07;14.43;;;7.18;;
65667;SDS011;52369;52.542;13.232;2023-02-13T05:24:53;14.70;;;6.22;;
65667;SDS011;52369;52.542;13.232;2023-02-13T05:27:19;14.43;;;5.43;;
65667;SDS011;52369;52.542;13.232;2023-02-13T05:29:45;12.77;;;6.07;;
65667;SDS011;52369;52.542;13.232;2023-02-13T05:32:11;12.60;;;5.88;;
65667;SDS011;52369;52.542;13.232;2023-02-13T05:34:37;12.68;;;5.57;;
65667;SDS011;52369;52.542;13.232;2023-02-13T05:37:03;12.32;;;5.45;;
65667;SDS011;52369;52.542;13.232;2023-02-13T05:39:29;15.18;;;6.53;;
65667;SDS011;52369;52.542;13.232;2023-02-13T05:41:55;12.23;;;5.75;;
65667;SDS011;52369;52.542;13.232;2023-02-13T05:44:21;11.77;;;5.25;;
65667;SDS011;52369;52.542;13.232;2023-02-13T05:46:47;13.45;;;6.05;;
65667;SDS011;52369;52.542;13.232;2023-02-13T05:49:13;12.65;;;5.25;;
65667;SDS011;52369;52.542;13.232;2023-02-13T05:51:40;13.38;;;5.70;;
65667;SDS011;52369;52.542;13.232;2023-02-13T05:54:07;10.90;;;5.40;;
65667;SDS011;52369;52.542;13.232;2023-02-13T05:56:33;12.13;;;5.85;;
65667;SDS011;52369;52.542;13.232;2023-02-13T05:58:59;10.73;;;5.13;;
65667;SDS011;52369;52.542;13.232;2023-02-13T06:01:25;13.30;;;5.38;;
65667;SDS011;52369;52.542;13.232;2023-02-13T06:03:51;9.52;;;4.82;;
65667;SDS011;52369;52.542;13.232;2023-02-13T06:06:17;13.20;;;5.60;;
65667;SDS011;52369;52.542;13.232;2023-02-13T06:08:44;10.43;;;5.18;;
65667;SDS011;52369;52.542;13.232;2023-02-13T06:11:10;9.70;;;5.10;;
65667;SDS011;52369;52.542;13.232;2023-02-13T06:13:36;10.15;;;4.65;;
65667;SDS011;52369;52.542;13.232;2023-02-13T06:16:08;10.52;;;5.05;;
65667;SDS011;52369;52.542;13.232;2023-02-13T06:18:34;9.82;;;5.35;;
65667;SDS011;52369;52.542;13.232;2023-02-13T06:21:00;10.13;;;5.30;;
65667;SDS011;52369;52.542;13.232;2023-02-13T06:23:27;11.05;;;4.82;;
65667;SDS011;52369;52.542;13.232;2023-02-13T06:25:53;9.68;;;4.97;;
65667;SDS011;52369;52.542;13.232;2023-02-13T06:28:19;11.75;;;5.43;;
65667;SDS011;52369;52.542;13.232;2023-02-13T06:30:45;12.93;;;5.20;;
65667;SDS011;52369;52.542;13.232;2023-02-13T06:33:12;8.75;;;4.65;;
65667;SDS011;52369;52.542;13.232;2023-02-13T06:35:38;8.57;;;4.82;;
65667;SDS011;52369;52.542;13.232;2023-02-13T06:38:05;9.10;;;5.03;;
65667;SDS011;52369;52.542;13.232;2023-02-13T06:40:31;11.23;;;5.13;;
65667;SDS011;52369;52.542;13.232;2023-02-13T06:42:57;9.40;;;4.82;;
65667;SDS011;52369;52.542;13.232;2023-02-13T06:45:23;10.25;;;5.00;;
65667;SDS011;52369;52.542;13.232;2023-02-13T06:47:49;10.30;;;5.35;;
65667;SDS011;52369;52.542;13.232;2023-02-13T06:50:16;10.73;;;5.22;;
65667;SDS011;52369;52.542;13.232;2023-02-13T06:52:46;10.85;;;5.30;;
65667;SDS011;52369;52.542;13.232;2023-02-13T06:55:12;11.98;;;5.47;;
65667;SDS011;52369;52.542;13.232;2023-02-13T06:57:38;13.75;;;5.70;;
65667;SDS011;52369;52.542;13.232;2023-02-13T07:00:04;11.10;;;5.15;;
65667;SDS011;52369;52.542;13.232;2023-02-13T07:02:31;13.85;;;5.95;;
65667;SDS011;52369;52.542;13.232;2023-02-13T07:04:57;12.20;;;5.95;;
65667;SDS011;52369;52.542;13.232;2023-02-13T07:07:23;12.65;;;5.78;;
65667;SDS011;52369;52.542;13.232;2023-02-13T07:09:49;13.52;;;5.53;;
65667;SDS011;52369;52.542;13.232;2023-02-13T07:12:15;12.05;;;5.90;;
65667;SDS011;52369;52.542;13.232;2023-02-13T07:14:41;10.68;;;5.22;;
65667;SDS011;52369;52.542;13.232;2023-02-13T07:17:07;13.35;;;5.85;;
65667;SDS011;52369;52.542;13.232;2023-02-13T07:19:35;11.35;;;5.38;;
65667;SDS011;52369;52.542;13.232;2023-02-13T07:22:01;12.50;;;5.93;;
65667;SDS011;52369;52.542;13.232;2023-02-13T07:24:27;13.07;;;6.00;;
65667;SDS011;52369;52.542;13.232;2023-02-13T07:26:53;11.50;;;5.05;;
65667;SDS011;52369;52.542;13.232;2023-02-13T07:29:19;11.77;;;6.05;;
65667;SDS011;52369;52.542;13.232;2023-02-13T07:31:45;13.48;;;5.32;;
65667;SDS011;52369;52.542;13.232;2023-02-13T07:34:11;15.82;;;8.23;;
65667;SDS011;52369;52.542;13.232;2023-02-13T07:36:37;11.90;;;5.22;;
65667;SDS011;52369;52.542;13.232;2023-02-13T07:39:03;12.98;;;5.35;;
65667;SDS011;52369;52.542;13.232;2023-02-13T07:41:29;11.23;;;5.85;;
65667;SDS011;52369;52.542;13.232;2023-02-13T07:43:55;10.80;;;5.18;;
65667;SDS011;52369;52.542;13.232;2023-02-13T07:46:21;12.35;;;5.40;;
65667;SDS011;52369;52.542;13.232;2023-02-13T07:48:47;13.07;;;6.05;;
65667;SDS011;52369;52.542;13.232;2023-02-13T07:51:13;13.07;;;5.70;;
65667;SDS011;52369;52.542;13.232;2023-02-13T07:53:40;14.02;;;5.60;;
65667;SDS011;52369;52.542;13.232;2023-02-13T07:56:06;12.15;;;5.80;;
65667;SDS011;52369;52.542;13.232;2023-02-13T07:58:33;12.05;;;5.78;;
65667;SDS011;52369;52.542;13.232;2023-02-13T08:01:04;11.07;;;5.43;;
65667;SDS011;52369;52.542;13.232;2023-02-13T08:03:30;13.90;;;6.38;;
65667;SDS011;52369;52.542;13.232;2023-02-13T08:05:56;14.05;;;5.93;;
65667;SDS011;52369;52.542;13.232;2023-02-13T08:08:22;11.70;;;5.35;;
65667;SDS011;52369;52.542;13.232;2023-02-13T08:10:48;12.98;;;5.80;;
65667;SDS011;52369;52.542;13.232;2023-02-13T08:13:33;11.70;;;4.93;;
65667;SDS011;52369;52.542;13.232;2023-02-13T08:16:01;10.15;;;5.03;;
65667;SDS011;52369;52.542;13.232;2023-02-13T08:18:27;12.10;;;5.00;;
65667;SDS011;52369;52.542;13.232;2023-02-13T08:20:53;11.73;;;5.93;;
65667;SDS011;52369;52.542;13.232;2023-02-13T08:23:19;12.90;;;5.55;;
65667;SDS011;52369;52.542;13.232;2023-02-13T08:25:45;13.98;;;5.80;;
65667;SDS011;52369;52.542;13.232;2023-02-13T08:28:13;11.45;;;5.57;;
65667;SDS011;52369;52.542;13.232;2023-02-13T08:30:41;13.27;;;5.30;;
65667;SDS011;52369;52.542;13.232;2023-02-13T08:33:07;12.52;;;5.57;;
65667;SDS011;52369;52.542;13.232;2023-02-13T08:35:33;13.30;;;5.57;;
65667;SDS011;52369;52.542;13.232;2023-02-13T08:38:03;13.38;;;5.65;;
65667;SDS011;52369;52.542;13.232;2023-02-13T08:40:29;11.35;;;5.45;;
65667;SDS011;52369;52.542;13.232;2023-02-13T08:42:59;11.77;;;5.50;;
65667;SDS011;52369;52.542;13.232;2023-02-13T08:45:26;10.68;;;4.90;;
65667;SDS011;52369;52.542;13.232;2023-02-13T08:47:54;12.55;;;5.43;;
65667;SDS011;52369;52.542;13.232;2023-02-13T08:50:21;9.65;;;4.90;;
65667;SDS011;52369;52.542;13.232;2023-02-13T08:52:47;12.25;;;5.90;;
65667;SDS011;52369;52.542;13.232;2023-02-13T08:55:13;11.45;;;5.03;;
65667;SDS011;52369;52.542;13.232;2023-02-13T08:57:39;11.85;;;5.38;;
65667;SDS011;52369;52.542;13.232;2023-02-13T09:00:05;11.32;;;5.70;;
65667;SDS011;52369;52.542;13.232;2023-02-13T09:02:31;9.82;;;4.93;;
65667;SDS011;52369;52.542;13.232;2023-02-13T09:04:57;11.02;;;5.13;;
65667;SDS011;52369;52.542;13.232;2023-02-13T09:07:23;12.77;;;5.22;;
65667;SDS011;52369;52.542;13.232;2023-02-13T09:09:49;11.32;;;5.20;;
65667;SDS011;52369;52.542;13.232;2023-02-13T09:12:15;12.57;;;5.80;;
65667;SDS011;52369;52.542;13.232;2023-02-13T09:14:41;13.68;;;5.45;;
65667;SDS011;52369;52.542;13.232;2023-02-13T09:17:07;12.63;;;5.68;;
65667;SDS011;52369;52.542;13.232;2023-02-13T09:19:33;12.75;;;5.75;;
65667;SDS011;52369;52.542;13.232;2023-02-13T09:21:59;11.73;;;5.72;;
65667;SDS011;52369;52.542;13.232;2023-02-13T09:24:25;16.13;;;5.80;;
65667;SDS011;52369;52.542;13.232;2023-02-13T09:26:51;13.77;;;6.70;;
65667;SDS011;52369;52.542;13.232;2023-02-13T09:29:17;14.63;;;5.80;;
65667;SDS011;52369;52.542;13.232;2023-02-13T09:31:44;14.00;;;6.68;;
65667;SDS011;52369;52.542;13.232;2023-02-13T09:34:10;13.35;;;6.22;;
65667;SDS011;52369;52.542;13.232;2023-02-13T09:36:36;13.10;;;6.32;;
65667;SDS011;52369;52.542;13.232;2023-02-13T09:39:02;14.80;;;6.85;;
65667;SDS011;52369;52.542;13.232;2023-02-13T09:41:32;16.02;;;7.10;;
65667;SDS011;52369;52.542;13.232;2023-02-13T09:44:00;18.52;;;7.18;;
65667;SDS011;52369;52.542;13.232;2023-02-13T09:46:37;16.13;;;6.63;;
65667;SDS011;52369;52.542;13.232;2023-02-13T09:49:07;15.35;;;6.18;;
65667;SDS011;52369;52.542;13.232;2023-02-13T09:51:36;16.85;;;7.25;;
65667;SDS011;52369;52.542;13.232;2023-02-13T09:54:03;14.75;;;7.05;;
65667;SDS011;52369;52.542;13.232;2023-02-13T09:56:34;15.10;;;6.30;;
65667;SDS011;52369;52.542;13.232;2023-02-13T09:59:07;15.88;;;6.75;;
65667;SDS011;52369;52.542;13.232;2023-02-13T10:01:43;20.23;;;8.63;;
65667;SDS011;52369;52.542;13.232;2023-02-13T10:06:46;17.50;;;6.93;;
65667;SDS011;52369;52.542;13.232;2023-02-13T10:09:28;16.55;;;7.25;;
65667;SDS011;52369;52.542;13.232;2023-02-13T10:14:31;17.58;;;7.00;;
65667;SDS011;52369;52.542;13.232;2023-02-13T10:17:09;16.45;;;7.03;;
65667;SDS011;52369;52.542;13.232;2023-02-13T10:19:39;17.80;;;6.20;;
65667;SDS011;52369;52.542;13.232;2023-02-13T10:22:14;13.98;;;6.45;;
65667;SDS011;52369;52.542;13.232;2023-02-13T10:24:51;13.55;;;6.18;;
65667;SDS011;52369;52.542;13.232;2023-02-13T10:35:21;17.75;;;7.50;;
65667;SDS011;52369;52.542;13.232;2023-02-13T10:37:48;15.50;;;6.53;;
65667;SDS011;52369;52.542;13.232;2023-02-13T10:40:16;15.50;;;6.70;;
65667;SDS011;52369;52.542;13.232;2023-02-13T10:42:44;16.33;;;7.53;;
65667;SDS011;52369;52.542;13.232;2023-02-13T10:45:17;16.58;;;7.63;;
65667;SDS011;52369;52.542;13.232;2023-02-13T10:58:16;21.23;;;9.18;;
65667;SDS011;52369;52.542;13.232;2023-02-13T11:00:45;29.27;;;12.23;;
65667;SDS011;52369;52.542;13.232;2023-02-13T11:03:21;18.38;;;8.32;;
65667;SDS011;52369;52.542;13.232;2023-02-13T11:05:47;33.38;;;12.80;;
65667;SDS011;52369;52.542;13.232;2023-02-13T11:08:18;16.50;;;7.28;;
65667;SDS011;52369;52.542;13.232;2023-02-13T11:10:45;17.08;;;8.70;;
65667;SDS011;52369;52.542;13.232;2023-02-13T11:13:19;19.17;;;8.13;;
65667;SDS011;52369;52.542;13.232;2023-02-13T11:18:30;18.88;;;8.88;;
65667;SDS011;52369;52.542;13.232;2023-02-13T11:21:40;16.40;;;7.68;;
65667;SDS011;52369;52.542;13.232;2023-02-13T11:23:51;17.77;;;8.45;;
65667;SDS011;52369;52.542;13.232;2023-02-13T11:26:23;24.40;;;10.05;;
65667;SDS011;52369;52.542;13.232;2023-02-13T11:28:54;23.45;;;10.02;;
65667;SDS011;52369;52.542;13.232;2023-02-13T11:31:23;17.92;;;8.50;;
65667;SDS011;52369;52.542;13.232;2023-02-13T11:33:49;17.05;;;8.38;;
65667;SDS011;52369;52.542;13.232;2023-02-13T11:36:20;20.10;;;8.80;;
65667;SDS011;52369;52.542;13.232;2023-02-13T11:38:56;18.20;;;8.35;;
65667;SDS011;52369;52.542;13.232;2023-02-13T11:41:22;18.50;;;8.57;;
65667;SDS011;52369;52.542;13.232;2023-02-13T11:43:52;20.30;;;9.35;;
65667;SDS011;52369;52.542;13.232;2023-02-13T11:46:24;19.45;;;8.63;;
65667;SDS011;52369;52.542;13.232;2023-02-13T11:48:58;16.70;;;8.40;;
65667;SDS011;52369;52.542;13.232;2023-02-13T11:54:00;19.02;;;9.20;;
65667;SDS011;52369;52.542;13.232;2023-02-13T11:56:40;19.35;;;8.77;;
65667;SDS011;52369;52.542;13.232;2023-02-13T11:59:11;18.38;;;9.02;;
65667;SDS011;52369;52.542;13.232;2023-02-13T12:01:38;17.42;;;9.23;;
65667;SDS011;52369;52.542;13.232;2023-02-13T12:04:17;20.30;;;9.30;;
65667;SDS011;52369;52.542;13.232;2023-02-13T12:09:24;20.00;;;8.93;;
65667;SDS011;52369;52.542;13.232;2023-02-13T12:11:51;22.20;;;10.68;;
65667;SDS011;52369;52.542;13.232;2023-02-13T12:14:19;22.08;;;11.13;;
65667;SDS011;52369;52.542;13.232;2023-02-13T12:16:47;24.02;;;11.68;;
65667;SDS011;52369;52.542;13.232;2023-02-13T12:19:19;22.17;;;10.80;;
65667;SDS011;52369;52.542;13.232;2023-02-13T12:29:45;19.63;;;9.35;;
65667;SDS011;52369;52.542;13.232;2023-02-13T12:40:06;18.23;;;9.48;;
65667;SDS011;52369;52.542;13.232;2023-02-13T12:42:47;20.48;;;10.48;;
65667;SDS011;52369;52.542;13.232;2023-02-13T12:45:20;20.98;;;9.60;;
65667;SDS011;52369;52.542;13.232;2023-02-13T12:52:57;21.83;;;10.27;;
65667;SDS011;52369;52.542;13.232;2023-02-13T13:08:14;18.73;;;9.13;;
65667;SDS011;52369;52.542;13.232;2023-02-13T13:21:13;19.83;;;10.10;;
65667;SDS011;52369;52.542;13.232;2023-02-13T13:23:47;19.65;;;8.98;;
65667;SDS011;52369;52.542;13.232;2023-02-13T13:26:22;20.60;;;8.95;;
65667;SDS011;52369;52.542;13.232;2023-02-13T13:28:52;18.80;;;8.75;;
65667;SDS011;52369;52.542;13.232;2023-02-13T13:31:19;21.10;;;8.40;;
65667;SDS011;52369;52.542;13.232;2023-02-13T13:33:48;20.75;;;10.15;;
65667;SDS011;52369;52.542;13.232;2023-02-13T13:36:20;20.98;;;9.73;;
65667;SDS011;52369;52.542;13.232;2023-02-13T13:49:28;19.87;;;8.63;;
65667;SDS011;52369;52.542;13.232;2023-02-13T13:54:36;18.77;;;8.20;;
65667;SDS011;52369;52.542;13.232;2023-02-13T14:07:31;21.08;;;9.73;;
65667;SDS011;52369;52.542;13.232;2023-02-13T14:09:58;52.45;;;19.48;;
65667;SDS011;52369;52.542;13.232;2023-02-13T14:14:51;18.33;;;9.75;;
65667;SDS011;52369;52.542;13.232;2023-02-13T14:20:01;20.02;;;9.55;;
65667;SDS011;52369;52.542;13.232;2023-02-13T14:24:58;20.58;;;9.60;;
65667;SDS011;52369;52.542;13.232;2023-02-13T14:27:28;18.40;;;9.07;;
65667;SDS011;52369;52.542;13.232;2023-02-13T14:29:54;17.98;;;8.68;;
65667;SDS011;52369;52.542;13.232;2023-02-13T14:32:30;18.90;;;8.90;;
65667;SDS011;52369;52.542;13.232;2023-02-13T14:35:05;24.48;;;10.75;;
65667;SDS011;52369;52.542;13.232;2023-02-13T14:38:16;18.33;;;7.93;;
65667;SDS011;52369;52.542;13.232;2023-02-13T14:45:39;18.90;;;8.82;;
65667;SDS011;52369;52.542;13.232;2023-02-13T14:48:06;18.50;;;8.98;;
65667;SDS011;52369;52.542;13.232;2023-02-13T14:50:42;18.20;;;8.50;;
65667;SDS011;52369;52.542;13.232;2023-02-13T14:53:26;20.85;;;9.63;;
65667;SDS011;52369;52.542;13.232;2023-02-13T14:58:22;18.30;;;8.10;;
65667;SDS011;52369;52.542;13.232;2023-02-13T15:00:52;21.05;;;9.32;;
65667;SDS011;52369;52.542;13.232;2023-02-13T15:03:36;18.35;;;8.57;;
65667;SDS011;52369;52.542;13.232;2023-02-13T15:06:13;19.27;;;8.70;;
65667;SDS011;52369;52.542;13.232;2023-02-13T15:08:45;18.98;;;9.38;;
65667;SDS011;52369;52.542;13.232;2023-02-13T15:11:12;18.92;;;8.85;;
65667;SDS011;52369;52.542;13.232;2023-02-13T15:16:42;18.58;;;8.75;;
65667;SDS011;52369;52.542;13.232;2023-02-13T15:19:16;19.42;;;9.82;;
65667;SDS011;52369;52.542;13.232;2023-02-13T15:22:16;19.35;;;9.38;;
65667;SDS011;52369;52.542;13.232;2023-02-13T15:24:36;21.20;;;9.40;;
65667;SDS011;52369;52.542;13.232;2023-02-13T15:27:04;21.98;;;9.68;;
65667;SDS011;52369;52.542;13.232;2023-02-13T15:29:31;19.45;;;9.55;;
65667;SDS011;52369;52.542;13.232;2023-02-13T15:31:58;23.65;;;10.35;;
65667;SDS011;52369;52.542;13.232;2023-02-13T15:36:50;21.27;;;10.27;;
65667;SDS011;52369;52.542;13.232;2023-02-13T15:39:18;19.33;;;9.40;;
65667;SDS011;52369;52.542;13.232;2023-02-13T15:41:45;18.15;;;9.27;;
65667;SDS011;52369;52.542;13.232;2023-02-13T15:44:17;19.92;;;9.13;;
65667;SDS011;52369;52.542;13.232;2023-02-13T15:46:47;18.95;;;8.80;;
65667;SDS011;52369;52.542;13.232;2023-02-13T15:49:16;21.75;;;9.73;;
65667;SDS011;52369;52.542;13.232;2023-02-13T15:51:43;18.77;;;9.45;;
65667;SDS011;52369;52.542;13.232;2023-02-13T15:56:48;22.40;;;9.38;;
65667;SDS011;52369;52.542;13.232;2023-02-13T15:59:15;23.40;;;9.43;;
65667;SDS011;52369;52.542;13.232;2023-02-13T16:01:42;18.10;;;9.85;;
65667;SDS011;52369;52.542;13.232;2023-02-13T16:04:11;18.58;;;9.02;;
65667;SDS011;52369;52.542;13.232;2023-02-13T16:06:39;23.15;;;10.13;;
65667;SDS011;52369;52.542;13.232;2023-02-13T16:09:05;20.25;;;9.98;;
65667;SDS011;52369;52.542;13.232;2023-02-13T16:13:58;19.65;;;9.15;;
65667;SDS011;52369;52.542;13.232;2023-02-13T16:16:26;22.70;;;9.95;;
65667;SDS011;52369;52.542;13.232;2023-02-13T16:18:53;20.65;;;10.20;;
65667;SDS011;52369;52.542;13.232;2023-02-13T16:21:23;23.00;;;10.30;;
65667;SDS011;52369;52.542;13.232;2023-02-13T16:23:55;21.15;;;10.13;;
65667;SDS011;52369;52.542;13.232;2023-02-13T16:26:22;18.20;;;9.05;;
65667;SDS011;52369;52.542;13.232;2023-02-13T16:28:48;18.92;;;9.52;;
65667;SDS011;52369;52.542;13.232;2023-02-13T16:31:15;20.30;;;9.68;;
65667;SDS011;52369;52.542;13.232;2023-02-13T16:33:43;22.98;;;10.32;;
65667;SDS011;52369;52.542;13.232;2023-02-13T16:38:38;20.67;;;10.32;;
65667;SDS011;52369;52.542;13.232;2023-02-13T16:43:47;22.92;;;10.65;;
65667;SDS011;52369;52.542;13.232;2023-02-13T16:51:35;22.73;;;10.93;;
65667;SDS011;52369;52.542;13.232;2023-02-13T16:54:06;24.13;;;10.23;;
65667;SDS011;52369;52.542;13.232;2023-02-13T17:01:42;20.88;;;10.30;;
65667;SDS011;52369;52.542;13.232;2023-02-13T17:04:23;18.25;;;9.45;;
65667;SDS011;52369;52.542;13.232;2023-02-13T17:06:53;20.40;;;9.63;;
65667;SDS011;52369;52.542;13.232;2023-02-13T17:09:20;22.23;;;10.60;;
65667;SDS011;52369;52.542;13.232;2023-02-13T17:11:48;21.50;;;9.90;;
65667;SDS011;52369;52.542;13.232;2023-02-13T17:14:15;19.85;;;9.43;;
65667;SDS011;52369;52.542;13.232;2023-02-13T17:16:41;19.38;;;10.30;;
65667;SDS011;52369;52.542;13.232;2023-02-13T17:19:07;22.73;;;10.20;;
65667;SDS011;52369;52.542;13.232;2023-02-13T17:21:33;22.33;;;10.48;;
65667;SDS011;52369;52.542;13.232;2023-02-13T17:24:00;22.95;;;11.13;;
65667;SDS011;52369;52.542;13.232;2023-02-13T17:26:27;21.08;;;9.48;;
65667;SDS011;52369;52.542;13.232;2023-02-13T17:28:53;23.98;;;10.73;;
65667;SDS011;52369;52.542;13.232;2023-02-13T17:31:18;23.90;;;10.25;;
65667;SDS011;52369;52.542;13.232;2023-02-13T17:33:45;33.75;;;14.18;;
65667;SDS011;52369;52.542;13.232;2023-02-13T17:36:12;25.00;;;12.07;;